Hauptseite
METAR-TAF:

METAR-TAF

Flughäfen :

Fliegerhorst Neuburg

Neuburg, Deutschland

Breite: 48-43N, Länge: 011-13E, Höhe: 380 m

Beobachtung

Neuester Wetterbericht von vor 1 Stunde und 6 Minuten, um 03:20 UTC
Wind 7 kt aus West
Temperatur 7°C
Luftfeuchtigkeit 76%
Luftdruck 1019 hPa
Sichtweite 10 km oder mehr
Geschlossene Wolkendecke in der Höhe von 5500 ft

METAR: ETSN 250320Z 27007KT 9999 OVC055 07/03 Q1019 BLU

Zeit: 05:26 (04:26 UTC)

Prognose

Neuester Wetterbericht von vor 2 Stunden und 16 Minuten, um 02:10 UTC
Gültige Prognose vom 25 um 03 UTC bis 25 um 12 UTC
Wind 5 kt aus West
Sichtweite: 8000 m
Durchbrochene Bewölkung in der Höhe von 5000 ft
Zeitweise
vom 25 um 03 UTC bis 25 um 07 UTC
Wind 8 kt aus West/Nordwest
Sichtweite: 5000 m
Aufgelockert bewölkt in der Höhe von 5000 ft
feuchter Dunst

TAF: ETSN 250210Z 2503/2512 28005KT 8000 NSW BKN050 TEMPO 2503/2507 29008KT 5000 BR SCT050 BY ETGL

Wetterbeobachtungen und Prognosen von mehr als 4000 Flughäfen (METAR und TAF Bericht).

Die verfügbaren Stationen werden durch gelbe und rote Markierungen auf der Karte dargestellt.

Führen Sie die Maus auf sie, um den Namen der Station zu sehen.

Darauf klicken, um die Beobachtung von Wetterbeobachtungen und Prognosen zu sehen.

Um die Karte zu ändern : klicken Sie auf den grünen Tasten mit einem schwarzen Kreuz Zum Vergrößern, auf den grünen Button mit einem Gedankenstrich zu verkleinern, oder auf die grünen Pfeile für benachbarte Karten.


METAR-TAF: